DW9403 Weather Reports


Display with metric or nautical units.
time (UTC)temp
F
wind
direction
speed
MPH
gust
MPH
rain 1hr
in
rain 24hr
in
rain mn
in
humidity
%
barometer
mb
20260503190047 79 297 0.0 0.0 0.00 0.00 0.00 38 1009.3
20260503184539 78 284 0.0 0.0 0.00 0.00 0.00 39 1009.5
20260503183047 76 53 1.0 0.0 0.00 0.00 0.00 40 1009.7
20260503181535 75 5 0.0 0.0 0.00 0.00 0.00 41 1009.8
20260503180031 75 46 0.0 0.0 0.00 0.00 0.00 43 1010.0
20260503174531 74 73 0.0 0.0 0.00 0.00 0.00 44 1010.1
20260503173025 73 121 0.0 0.0 0.00 0.00 0.00 46 1010.2
20260503171523 72 56 0.0 0.0 0.00 0.00 0.00 48 1010.2
20260503150104 57 114 0.0 0.0 0.00 0.00 0.00 83 1010.7
20260503081523 60 119 0.0 0.0 0.00 0.00 0.00 83 1011.2
20260503071521 60 120 0.0 0.0 0.00 0.00 0.00 82 1011.4
20260503054515 62 193 0.0 0.0 0.00 0.00 0.00 79 1011.6
20260503053015 62 15 0.0 0.0 0.00 0.00 0.00 77 1011.0
20260503051518 62 360 0.0 0.0 0.00 0.00 0.00 78 1010.9
20260503050017 62 11 0.0 0.0 0.00 0.00 0.00 78 1011.2
20260503044517 62 11 0.0 0.0 0.00 0.00 0.00 77 1011.4
20260503043012 62 106 0.0 0.0 0.00 0.00 0.00 77 1011.6
20260503041512 63 106 0.0 0.0 0.00 0.00 0.00 77 1011.7
20260503040017 63 106 0.0 0.0 0.00 0.00 0.00 76 1011.6
20260503034514 63 140 0.0 0.0 0.00 0.00 0.00 76 1011.3
20260503033014 64 114 0.0 0.0 0.00 0.00 0.00 75 1011.4
20260503031510 64 108 0.0 0.0 0.00 0.00 0.00 75 1011.4
20260503030010 65 108 0.0 0.0 0.00 0.00 0.00 73 1011.3
20260503024509 65 134 1.0 0.0 0.00 0.00 0.00 71 1011.3
20260503023009 65 130 0.0 0.0 0.00 0.00 0.00 71 1011.2
20260503021508 66 149 0.0 0.0 0.00 0.00 0.00 70 1011.0
20260503020008 66 150 0.0 0.0 0.00 0.00 0.00 72 1010.6
20260503014510 66 150 0.0 0.0 0.00 0.00 0.00 71 1010.3
20260503013007 66 150 0.0 0.0 0.00 0.00 0.00 71 1010.3
20260503011506 66 151 0.0 0.0 0.00 0.00 0.00 71 1010.3
20260503010010 67 244 0.0 0.0 0.00 0.00 0.00 70 1010.3
20260503004505 67 246 0.0 0.0 0.00 0.00 0.00 69 1010.5
20260503003005 67 246 0.0 0.0 0.00 0.00 0.00 69 1010.4
20260503001503 67 254 0.0 0.0 0.00 0.00 0.00 71 1010.3
20260503000002 67 270 0.0 0.0 0.00 0.00 0.00 69 1010.3
20260502234501 68 283 0.0 0.0 0.00 0.00 0.00 67 1010.4
20260502233102 68 258 0.0 0.0 0.00 0.00 0.00 67 1010.5
20260502231558 67 304 0.0 0.0 0.00 0.00 0.00 67 1010.7
20260502230057 68 285 1.0 0.0 0.00 0.00 0.00 65 1010.6
20260502224601 67 317 0.0 0.0 0.00 0.00 0.00 66 1010.9
20260502223054 67 263 0.0 0.0 0.00 0.00 0.00 66 1011.1
20260502221551 66 15 0.0 0.0 0.00 0.00 0.00 69 1011.6
20260502220047 65 294 0.0 0.0 0.00 0.00 0.00 69 1011.8
20260502214554 65 355 0.0 0.0 0.00 0.00 0.00 71 1012.0
20260502213042 63 5 0.0 0.0 0.00 0.00 0.00 71 1012.2
20260502211539 63 221 0.0 0.0 0.00 0.00 0.00 73 1012.4
20260502210047 63 296 0.0 0.0 0.00 0.00 0.00 73 1012.7
20260502204534 62 306 0.0 0.0 0.00 0.00 0.00 75 1012.9
20260502203033 60 239 0.0 0.0 0.00 0.00 0.00 79 1013.0
20260502201528 59 165 0.0 0.0 0.00 0.00 0.00 78 1013.1
20260502200024 58 296 0.0 0.0 0.00 0.00 0.00 81 1013.3
20260502194521 57 188 0.0 0.0 0.00 0.00 0.00 83 1013.5
20260502193019 56 259 0.0 0.0 0.00 0.00 0.00 85 1013.7
20260502191515 54 212 0.0 0.0 0.00 0.00 0.00 87 1013.7